Ogema, WI

10:36 AM CDT on August 20, 2014 (GMT -0500)
Cummings Maple Acres | Change Station
CLOSE
Current Station
Personal Weather Station
Location: Phillips, WI
Elevation: 1542 ft
Nearby Weather Stations

Elev 1542 ft 45.64 °N, 90.34 °W | Updated 4 seconds ago

Overcast
Overcast
62.6 °F
Feels Like 62.6 °F
N
0.0
Wind Variable Wind from North
Gusts 0.0 mph

Today
High -- | Low -- °F
--% Chance of Precip.
Yesterday
High -- | Low -- °F
Precip. -- in
6:07 AM 7:59 PM
Waning Crescent, 21% visible
Pressure 29.90 in
Visibility 10.0 miles
Clouds Overcast 1000 ft
Dew Point 61 °F
Humidity 95%
Rainfall 0.00 in
Snow Depth Not available.
UV 2 out of 12
Pollen 9.30 out of 12
Air Quality Not available.
Flu Activity Not available.
METAR KPBH 201515Z AUTO 01003KT 10SM OVC010 16/15 A2990 RMK AO2 T01640145

More Conditions Fewer Conditions

Pressure 29.90 in
Visibility 10.0 miles
Clouds Overcast 1000 ft
Dew Point 61 °F
Humidity 95%
Rainfall 0.00 in
Snow Depth Not available.
UV 2 out of 12
Pollen 9.30 out of 12
Air Quality Not available.
Flu Activity Not available.
METAR KPBH 201515Z AUTO 01003KT 10SM OVC010 16/15 A2990 RMK AO2 T01640145

More Conditions Fewer Conditions

10-Day Weather Forecast

Almanac

Astronomy

Aug. 20, 2014 Rise Set
Actual Time 6:07 AM CDT 7:59 PM CDT
Civil Twilight 5:36 AM CDT 8:31 PM CDT
Nautical Twilight 4:57 AM CDT 9:10 PM CDT
Astronomical Twilight 4:14 AM CDT 9:52 PM CDT
Moon 1:42 AM CDT 4:50 PM CDT
Length of Visible Light 14h 55m
Length of Day
13h 52m
Tomorrow will be 2m 56s shorter.
Waning Crescent, 21% of the Moon is Illuminated
Today
Waning Crescent
Aug 25
New
Sep 2
First Quarter
Sep 8
Full
Sep 15
Last Quarter

Today's Extremes

State Highs State Lows

Community

WunderPhotos

Upload Photos

1,745,667 photos uploaded!

WunderBlogs® & News

Nearby

Snow Depth

Station Depth Elevation
No new snow has been reported.

Earthquake Activity

City Distance Mag. Time & Date
No recent earthquake activity has been reported nearby.
Minimum magnitude displayed is 2.5.

Coastal Water Temperatures

Place Temperature
No Stations Reporting

Nearby Weather Stations